createdAt,value
2023-05-10T00:01:37.667Z,1.20
2023-05-10T00:04:40.418Z,1.75
2023-05-10T00:07:46.385Z,1.70
2023-05-10T00:10:49.018Z,2.35
2023-05-10T00:13:51.811Z,2.20
2023-05-10T00:16:54.516Z,1.58
2023-05-10T00:19:57.307Z,1.60
2023-05-10T00:23:00.372Z,3.53
2023-05-10T00:26:03.333Z,2.13
2023-05-10T00:29:06.120Z,1.67
2023-05-10T00:32:09.138Z,1.58
2023-05-10T00:35:12.368Z,1.70
2023-05-10T00:38:15.867Z,1.92
2023-05-10T00:41:18.678Z,1.65
2023-05-10T00:44:22.510Z,1.42
2023-05-10T00:47:25.754Z,1.30
2023-05-10T00:50:28.441Z,2.80
2023-05-10T00:53:34.109Z,1.50
2023-05-10T00:56:37.094Z,1.60
2023-05-10T00:59:39.862Z,1.67
2023-05-10T01:02:43.991Z,1.27
2023-05-10T01:05:46.916Z,1.65
2023-05-10T01:08:49.953Z,1.65
2023-05-10T01:11:54.040Z,2.00
2023-05-10T01:14:57.001Z,3.92
2023-05-10T01:18:00.322Z,1.85
2023-05-10T01:21:34.936Z,1.42
2023-05-10T01:24:52.838Z,11.63
2023-05-10T01:28:02.199Z,3.25
2023-05-10T01:31:17.912Z,4.95
2023-05-10T01:34:25.285Z,1.80
2023-05-10T01:37:48.735Z,1.77
2023-05-10T01:41:10.607Z,1.77
2023-05-10T01:44:47.396Z,3.55
2023-05-10T01:48:10.516Z,3.40
2023-05-10T01:51:14.424Z,22.02
2023-05-10T01:54:19.231Z,12.75
2023-05-10T01:57:24.182Z,3.67
2023-05-10T02:00:28.618Z,2.30
2023-05-10T02:03:32.733Z,1.70
2023-05-10T02:06:36.128Z,1.55
2023-05-10T02:09:39.650Z,2.00
2023-05-10T02:12:47.620Z,1.30
2023-05-10T02:15:51.234Z,1.52
2023-05-10T02:18:54.357Z,1.10
2023-05-10T02:21:57.708Z,3.28
2023-05-10T02:25:02.066Z,3.25
2023-05-10T02:28:06.885Z,2.42
2023-05-10T02:31:11.183Z,2.63
2023-05-10T02:34:14.992Z,1.90
2023-05-10T02:37:20.576Z,1.85
2023-05-10T02:40:25.132Z,2.03
2023-05-10T02:43:30.044Z,1.48
2023-05-10T02:46:33.092Z,1.75
2023-05-10T02:49:36.626Z,1.80
2023-05-10T02:52:46.602Z,1.45
2023-05-10T02:55:54.334Z,1.50
2023-05-10T02:58:57.343Z,1.65
2023-05-10T03:02:02.004Z,1.77
2023-05-10T03:05:05.951Z,1.70
2023-05-10T03:08:09.013Z,1.85
2023-05-10T03:11:17.719Z,1.75
2023-05-10T03:14:25.113Z,1.83
2023-05-10T03:17:32.799Z,1.90
2023-05-10T03:20:39.085Z,1.35
2023-05-10T03:23:48.041Z,1.60
2023-05-10T03:26:52.162Z,2.25
2023-05-10T03:29:55.295Z,2.10
2023-05-10T03:32:58.373Z,1.75
2023-05-10T03:36:01.499Z,1.90
2023-05-10T03:39:04.852Z,1.85
2023-05-10T03:42:07.534Z,1.88
2023-05-10T03:45:11.160Z,1.60
2023-05-10T03:48:15.001Z,1.67
2023-05-10T03:51:19.111Z,2.53
2023-05-10T03:54:22.044Z,1.80
2023-05-10T03:57:24.862Z,2.05
2023-05-10T04:00:27.858Z,1.60
2023-05-10T04:03:32.312Z,2.15
2023-05-10T04:06:36.483Z,2.03
2023-05-10T04:09:39.309Z,1.30
2023-05-10T04:12:42.545Z,1.80
2023-05-10T04:15:45.341Z,1.83
2023-05-10T04:18:48.076Z,2.17
2023-05-10T04:21:50.950Z,2.22
2023-05-10T04:24:55.096Z,2.10
2023-05-10T04:28:00.384Z,1.98
2023-05-10T04:31:12.870Z,2.22
2023-05-10T04:34:15.901Z,2.42
2023-05-10T04:37:22.730Z,2.13
2023-05-10T04:40:25.629Z,2.22
2023-05-10T04:43:28.237Z,2.42
2023-05-10T04:46:31.043Z,2.35
2023-05-10T04:49:33.908Z,2.63
2023-05-10T04:52:37.713Z,1.98
2023-05-10T04:55:40.613Z,2.50
2023-05-10T04:58:43.465Z,2.20
2023-05-10T05:01:46.254Z,2.13
2023-05-10T05:04:49.097Z,2.78
2023-05-10T05:07:52.143Z,2.55
2023-05-10T05:10:56.038Z,2.40
2023-05-10T05:14:00.477Z,2.58
2023-05-10T05:17:03.156Z,4.18
2023-05-10T05:20:06.839Z,2.03
2023-05-10T05:23:09.678Z,2.22
2023-05-10T05:26:13.908Z,1.90
2023-05-10T05:29:19.719Z,2.20
2023-05-10T05:32:22.972Z,2.38
2023-05-10T05:35:26.059Z,2.42
2023-05-10T05:38:28.899Z,2.92
2023-05-10T05:41:31.903Z,2.53
2023-05-10T05:44:34.680Z,2.92
2023-05-10T05:47:37.875Z,2.22
2023-05-10T05:50:40.878Z,2.10
2023-05-10T05:53:43.775Z,2.17
2023-05-10T05:56:46.751Z,2.05
2023-05-10T05:59:49.754Z,2.78
2023-05-10T06:02:52.561Z,2.55
2023-05-10T06:05:55.352Z,2.60
2023-05-10T06:08:58.021Z,2.15
2023-05-10T06:12:00.753Z,2.03
2023-05-10T06:15:04.567Z,1.85
2023-05-10T06:18:07.700Z,2.13
2023-05-10T06:21:11.156Z,2.40
2023-05-10T06:24:13.931Z,2.22
2023-05-10T06:27:16.929Z,2.20
2023-05-10T06:30:20.453Z,1.85
2023-05-10T06:33:23.616Z,2.22
2023-05-10T06:36:27.827Z,1.92
2023-05-10T06:39:30.721Z,1.83
2023-05-10T06:42:33.483Z,1.95
2023-05-10T06:45:36.595Z,2.22
2023-05-10T06:48:39.616Z,1.70
2023-05-10T06:51:42.491Z,1.88
2023-05-10T06:54:45.737Z,1.60
2023-05-10T06:57:49.199Z,1.30
2023-05-10T07:00:52.159Z,7.10
2023-05-10T07:03:55.090Z,1.88
2023-05-10T07:06:58.633Z,1.40
2023-05-10T07:10:01.731Z,1.42
2023-05-10T07:13:04.614Z,1.67
2023-05-10T07:16:12.842Z,1.13
2023-05-10T07:19:16.112Z,1.45
2023-05-10T07:22:19.106Z,1.90
2023-05-10T07:25:22.125Z,1.30
2023-05-10T07:28:25.538Z,1.35
2023-05-10T07:31:28.441Z,1.73
2023-05-10T07:34:32.067Z,1.20
2023-05-10T07:37:35.092Z,1.50
2023-05-10T07:40:38.687Z,1.35
2023-05-10T07:43:42.002Z,1.33
2023-05-10T07:46:44.659Z,1.65
2023-05-10T07:49:47.614Z,1.42
2023-05-10T07:52:50.570Z,1.23
2023-05-10T07:55:55.968Z,1.13
2023-05-10T07:59:03.269Z,1.30
2023-05-10T08:02:08.505Z,1.40
2023-05-10T08:05:12.243Z,1.30
2023-05-10T08:08:15.097Z,1.40
2023-05-10T08:11:19.082Z,1.65
2023-05-10T08:14:21.856Z,1.42
2023-05-10T08:17:24.878Z,1.35
2023-05-10T08:20:27.561Z,1.92
2023-05-10T08:23:30.273Z,1.73
2023-05-10T08:26:34.054Z,1.40
2023-05-10T08:29:48.997Z,1.80
2023-05-10T08:32:52.560Z,1.50
2023-05-10T08:35:55.552Z,1.40
2023-05-10T08:38:58.445Z,1.42
2023-05-10T08:42:03.535Z,1.40
2023-05-10T08:45:07.407Z,1.40
2023-05-10T08:48:11.570Z,1.33
2023-05-10T08:51:26.769Z,1.23
2023-05-10T08:54:29.611Z,1.05
2023-05-10T08:57:32.746Z,1.50
2023-05-10T09:00:36.396Z,1.48
2023-05-10T09:03:40.344Z,1.58
2023-05-10T09:06:43.243Z,1.20
2023-05-10T09:09:46.836Z,1.40
2023-05-10T09:12:50.036Z,1.27
2023-05-10T09:15:52.915Z,1.27
2023-05-10T09:18:55.758Z,1.50
2023-05-10T09:21:58.597Z,1.30
2023-05-10T09:25:10.959Z,1.02
2023-05-10T09:28:14.028Z,1.25
2023-05-10T09:31:17.069Z,1.40
2023-05-10T09:34:22.448Z,1.45
2023-05-10T09:37:30.968Z,1.45
2023-05-10T09:40:33.803Z,1.08
2023-05-10T09:43:39.760Z,1.27
2023-05-10T09:46:42.969Z,1.20
2023-05-10T09:49:45.840Z,1.10
2023-05-10T09:52:56.675Z,1.25
2023-05-10T09:55:59.613Z,1.27
2023-05-10T09:59:05.850Z,1.15
2023-05-10T10:02:08.637Z,1.30
2023-05-10T10:05:13.322Z,1.23
2023-05-10T10:08:16.985Z,1.30
2023-05-10T10:11:19.993Z,1.00
2023-05-10T10:14:24.486Z,1.35
2023-05-10T10:17:29.468Z,1.20
2023-05-10T10:20:32.394Z,1.00
2023-05-10T10:23:36.794Z,1.15
2023-05-10T10:26:40.289Z,1.05
2023-05-10T10:29:51.610Z,1.52
2023-05-10T10:33:32.514Z,1.23
2023-05-10T10:36:44.096Z,0.93
2023-05-10T10:39:49.944Z,1.00
2023-05-10T10:42:53.397Z,1.48
2023-05-10T10:46:18.561Z,0.90
2023-05-10T10:49:24.367Z,1.25
2023-05-10T10:52:34.675Z,1.40
2023-05-10T10:55:49.819Z,0.88
2023-05-10T10:58:53.800Z,1.15
2023-05-10T11:01:57.221Z,1.20
2023-05-10T11:05:00.498Z,1.00
2023-05-10T11:08:17.571Z,1.52
2023-05-10T11:14:23.900Z,1.10
2023-05-10T11:17:29.349Z,1.30
2023-05-10T11:20:40.820Z,0.80
2023-05-10T11:23:57.741Z,1.08
2023-05-10T11:27:01.216Z,1.23
2023-05-10T11:30:07.470Z,1.20
2023-05-10T11:33:11.371Z,1.23
2023-05-10T11:36:27.883Z,1.33
2023-05-10T11:39:32.960Z,1.17
2023-05-10T11:42:36.082Z,1.10
2023-05-10T11:45:39.143Z,1.10
2023-05-10T11:48:42.997Z,0.93
2023-05-10T11:51:45.970Z,0.95
2023-05-10T11:54:56.332Z,0.90
2023-05-10T11:58:03.206Z,1.20
2023-05-10T12:01:08.209Z,1.17
2023-05-10T12:04:11.595Z,0.90
2023-05-10T12:07:14.848Z,1.10
2023-05-10T12:10:19.458Z,0.80
2023-05-10T12:13:22.589Z,0.93
2023-05-10T12:16:30.971Z,1.20
2023-05-10T12:19:41.099Z,1.10
2023-05-10T12:22:55.217Z,0.93
2023-05-10T12:26:04.819Z,1.00
2023-05-10T12:32:42.313Z,1.00
2023-05-10T12:35:50.693Z,0.95
2023-05-10T12:39:04.213Z,0.93
2023-05-10T12:42:07.721Z,1.10
2023-05-10T12:45:10.925Z,0.93
2023-05-10T12:48:16.978Z,1.00
2023-05-10T12:51:23.447Z,0.70
2023-05-10T12:54:26.335Z,1.00
2023-05-10T12:57:29.225Z,1.00
2023-05-10T13:00:32.039Z,1.00
2023-05-10T13:03:34.744Z,0.80
2023-05-10T13:06:39.453Z,0.70
2023-05-10T13:09:46.586Z,0.80
2023-05-10T13:12:49.244Z,0.85
2023-05-10T13:15:52.136Z,0.95
2023-05-10T13:18:54.802Z,1.00
2023-05-10T13:21:57.956Z,0.90
2023-05-10T13:25:01.215Z,1.00
2023-05-10T13:28:05.407Z,1.00
2023-05-10T13:31:09.220Z,0.80
2023-05-10T13:34:12.390Z,1.00
2023-05-10T13:37:15.842Z,1.23
2023-05-10T13:40:18.975Z,0.90
2023-05-10T13:43:21.845Z,0.95
2023-05-10T13:46:24.822Z,0.98
2023-05-10T13:49:28.304Z,0.90
2023-05-10T13:52:31.046Z,1.00
2023-05-10T13:55:34.191Z,0.90
2023-05-10T13:58:37.684Z,1.17
2023-05-10T14:01:40.543Z,0.95
2023-05-10T14:04:43.502Z,1.15
2023-05-10T14:07:46.281Z,0.80
2023-05-10T14:10:50.118Z,0.90
2023-05-10T14:13:53.045Z,0.95
2023-05-10T14:16:55.789Z,1.00
2023-05-10T14:19:58.657Z,0.80
2023-05-10T14:23:01.670Z,0.70
2023-05-10T14:26:05.878Z,0.60
2023-05-10T14:29:11.596Z,0.93
2023-05-10T14:32:15.278Z,0.90
2023-05-10T14:35:20.009Z,1.08
2023-05-10T14:38:22.904Z,0.70
2023-05-10T14:41:27.912Z,0.85
2023-05-10T14:44:31.044Z,0.80
2023-05-10T14:47:33.859Z,1.45
2023-05-10T14:50:37.502Z,0.95
2023-05-10T14:53:44.891Z,0.70
2023-05-10T14:56:48.291Z,2.08
2023-05-10T14:59:51.070Z,0.85
2023-05-10T15:02:54.497Z,0.70
2023-05-10T15:05:59.093Z,0.80
2023-05-10T15:09:02.970Z,0.68
2023-05-10T15:12:05.746Z,0.70
2023-05-10T15:15:09.289Z,0.77
2023-05-10T15:18:12.418Z,0.82
2023-05-10T15:21:15.340Z,1.10
2023-05-10T15:24:18.436Z,0.68
2023-05-10T15:27:21.363Z,0.77
2023-05-10T15:30:24.359Z,0.70
2023-05-10T15:33:28.775Z,0.70
2023-05-10T15:36:33.185Z,0.85
2023-05-10T15:39:36.120Z,0.80
2023-05-10T15:42:38.888Z,1.17
2023-05-10T15:45:42.095Z,0.80
2023-05-10T15:48:52.061Z,0.95
2023-05-10T15:51:54.805Z,1.30
2023-05-10T15:54:57.842Z,1.17
2023-05-10T15:58:03.250Z,1.10
2023-05-10T16:01:06.296Z,1.02
2023-05-10T16:04:09.009Z,0.98
2023-05-10T16:07:11.728Z,1.30
2023-05-10T16:10:14.576Z,1.00
2023-05-10T16:13:17.579Z,1.85
2023-05-10T16:16:20.379Z,2.15
2023-05-10T16:19:23.378Z,1.60
2023-05-10T16:22:28.027Z,2.75
2023-05-10T16:25:31.184Z,1.75
2023-05-10T16:28:34.062Z,1.83
2023-05-10T16:31:37.330Z,1.92
2023-05-10T16:34:40.466Z,2.60
2023-05-10T16:37:43.631Z,1.70
2023-05-10T16:40:46.487Z,1.33
2023-05-10T16:43:49.865Z,1.33
2023-05-10T16:46:53.722Z,1.50
2023-05-10T16:49:58.746Z,1.15
2023-05-10T16:53:04.805Z,1.02
2023-05-10T16:56:11.996Z,1.52
2023-05-10T16:59:15.164Z,1.48
2023-05-10T17:02:20.088Z,1.48
2023-05-10T17:05:23.260Z,1.63
2023-05-10T17:08:26.318Z,2.97
2023-05-10T17:11:30.551Z,3.45
2023-05-10T17:14:34.041Z,3.50
2023-05-10T17:17:37.034Z,6.93
2023-05-10T17:20:43.740Z,4.53
2023-05-10T17:26:49.308Z,5.72
2023-05-10T17:29:56.900Z,4.57
2023-05-10T17:33:01.110Z,2.30
2023-05-10T17:36:04.359Z,2.40
2023-05-10T17:39:07.425Z,2.33
2023-05-10T17:42:10.288Z,2.20
2023-05-10T17:45:35.206Z,1.75
2023-05-10T17:48:45.244Z,1.02
2023-05-10T17:51:51.054Z,1.30
2023-05-10T17:54:54.070Z,1.58
2023-05-10T17:57:59.728Z,1.45
2023-05-10T18:01:03.431Z,1.67
2023-05-10T18:04:06.526Z,1.38
2023-05-10T18:07:10.711Z,1.20
2023-05-10T18:10:15.860Z,1.50
2023-05-10T18:13:21.494Z,2.03
2023-05-10T18:16:26.071Z,1.52
2023-05-10T18:19:29.248Z,1.38
2023-05-10T18:22:32.706Z,1.55
2023-05-10T18:25:36.747Z,1.40
2023-05-10T18:28:39.862Z,1.50
2023-05-10T18:31:43.251Z,2.50
2023-05-10T18:34:46.285Z,3.08
2023-05-10T18:37:49.330Z,1.90
2023-05-10T18:40:54.749Z,1.60
2023-05-10T18:43:57.750Z,2.30
2023-05-10T18:47:00.914Z,1.67
2023-05-10T18:50:05.866Z,1.42
2023-05-10T18:53:09.003Z,1.92
2023-05-10T18:56:14.128Z,1.52
2023-05-10T18:59:17.217Z,1.20
2023-05-10T19:02:20.454Z,1.20
2023-05-10T19:05:30.381Z,1.42
2023-05-10T19:08:33.284Z,1.13
2023-05-10T19:11:39.128Z,1.08
2023-05-10T19:14:42.176Z,1.20
2023-05-10T19:17:47.961Z,0.95
2023-05-10T19:20:50.980Z,1.00
2023-05-10T19:23:58.451Z,1.10
2023-05-10T19:27:02.242Z,1.10
2023-05-10T19:30:06.439Z,0.93
2023-05-10T19:33:10.597Z,1.15
2023-05-10T19:36:13.806Z,1.05
2023-05-10T19:39:16.863Z,1.05
2023-05-10T19:42:20.836Z,1.35
2023-05-10T19:45:24.149Z,1.25
2023-05-10T19:48:27.327Z,1.35
2023-05-10T19:51:30.339Z,1.17
2023-05-10T19:54:34.085Z,1.73
2023-05-10T19:57:38.113Z,1.08
2023-05-10T20:00:41.428Z,1.80
2023-05-10T20:03:44.135Z,4.63
2023-05-10T20:06:47.399Z,5.93
2023-05-10T20:09:50.479Z,6.18
2023-05-10T20:12:54.682Z,7.45
2023-05-10T20:15:58.825Z,6.95
2023-05-10T20:19:01.673Z,7.15
2023-05-10T20:22:06.124Z,12.93
2023-05-10T20:25:10.132Z,11.27
2023-05-10T20:28:13.488Z,12.20
2023-05-10T20:31:16.525Z,11.27
2023-05-10T20:34:19.689Z,4.22
2023-05-10T20:37:23.109Z,2.22
2023-05-10T20:40:26.067Z,1.95
2023-05-10T20:43:29.707Z,1.90
2023-05-10T20:46:33.452Z,1.48
2023-05-10T20:49:38.251Z,2.00
2023-05-10T20:52:41.064Z,1.35
2023-05-10T20:55:43.958Z,1.63
2023-05-10T20:58:46.883Z,1.35
2023-05-10T21:01:52.090Z,1.85
2023-05-10T21:04:57.096Z,1.65
2023-05-10T21:08:01.141Z,1.52
2023-05-10T21:11:06.896Z,1.33
2023-05-10T21:14:10.669Z,2.30
2023-05-10T21:17:14.246Z,1.92
2023-05-10T21:20:17.455Z,2.35
2023-05-10T21:23:20.545Z,2.00
2023-05-10T21:26:23.813Z,1.40
2023-05-10T21:29:26.674Z,1.65
2023-05-10T21:32:29.814Z,1.80
2023-05-10T21:35:32.654Z,1.70
2023-05-10T21:38:35.472Z,1.73
2023-05-10T21:41:38.421Z,1.55
2023-05-10T21:44:41.440Z,1.38
2023-05-10T21:47:44.639Z,1.92
2023-05-10T21:50:48.368Z,1.80
2023-05-10T21:53:51.366Z,1.50
2023-05-10T21:56:54.829Z,1.83
2023-05-10T21:59:57.729Z,1.73
2023-05-10T22:03:00.850Z,1.65
2023-05-10T22:06:04.012Z,1.90
2023-05-10T22:09:06.903Z,1.55
2023-05-10T22:12:10.382Z,1.63
2023-05-10T22:15:13.612Z,1.85
2023-05-10T22:18:16.853Z,1.65
2023-05-10T22:21:20.052Z,1.50
2023-05-10T22:24:22.856Z,1.50
2023-05-10T22:27:25.541Z,2.10
2023-05-10T22:30:29.217Z,1.20
2023-05-10T22:33:33.247Z,1.88
2023-05-10T22:36:35.948Z,1.52
2023-05-10T22:39:38.747Z,1.80
2023-05-10T22:42:41.417Z,1.45
2023-05-10T22:45:44.260Z,1.35
2023-05-10T22:48:47.204Z,1.02
2023-05-10T22:51:50.153Z,1.70
2023-05-10T22:54:53.038Z,1.08
2023-05-10T22:57:56.649Z,1.38
2023-05-10T23:00:59.639Z,1.60
2023-05-10T23:04:02.283Z,1.52
2023-05-10T23:07:04.930Z,1.60
2023-05-10T23:10:08.160Z,1.58
2023-05-10T23:13:11.114Z,1.73
2023-05-10T23:16:16.223Z,1.70
2023-05-10T23:19:19.401Z,1.73
2023-05-10T23:22:22.268Z,1.65
2023-05-10T23:25:25.171Z,1.50
2023-05-10T23:28:28.012Z,1.42
2023-05-10T23:31:30.976Z,1.40
2023-05-10T23:34:36.099Z,1.52
2023-05-10T23:37:38.811Z,1.38
2023-05-10T23:40:41.705Z,1.80
2023-05-10T23:43:44.623Z,1.83
2023-05-10T23:46:47.567Z,1.48
2023-05-10T23:49:50.722Z,1.80
2023-05-10T23:52:53.456Z,1.35
2023-05-10T23:55:56.343Z,1.48
2023-05-10T23:58:59.021Z,1.50
